Time;durP1;ratioP1;P1;durP2;ratioP2;P2;SDS_P1;SDS_P2;PMS_P1;PMS_P2;Temp;Humidity;BMP_temperature;BMP_pressure;BME280_temperature;BME280_humidity;BME280_pressure;Samples;Min_cycle;Max_cycle;Signal;HPM_P1;HPM_P2
2022/06/26 00:01:39;;;;;;;6.25;3.98;;;;;;;20.39;59.93;99231.45;1788884;80;20879;-64
2022/06/26 00:04:07;;;;;;;4.33;3.65;;;;;;;20.36;60.05;99234.11;1772352;80;20940;-63
2022/06/26 00:06:34;;;;;;;6.37;3.90;;;;;;;20.33;60.25;99236.45;1785352;80;20917;-63
2022/06/26 00:09:00;;;;;;;5.17;3.12;;;;;;;20.30;60.44;99243.16;1776353;80;21029;-62
2022/06/26 00:11:27;;;;;;;3.87;3.58;;;;;;;20.26;60.45;99242.80;1780885;80;21333;-62
2022/06/26 00:13:53;;;;;;;6.47;4.00;;;;;;;20.23;60.52;99247.84;1796646;79;20921;-63
2022/06/26 00:16:21;;;;;;;5.40;3.42;;;;;;;20.20;60.61;99245.09;1783140;79;21021;-62
2022/06/26 00:18:49;;;;;;;3.87;3.50;;;;;;;20.18;60.67;99240.95;1774937;80;20927;-63
2022/06/26 00:21:15;;;;;;;4.00;3.12;;;;;;;20.16;60.84;99236.33;1789692;80;20965;-63
2022/06/26 00:23:42;;;;;;;6.55;3.40;;;;;;;20.14;61.10;99241.98;1768242;80;21283;-63
2022/06/26 00:26:08;;;;;;;5.22;3.22;;;;;;;20.13;61.24;99248.95;1783196;80;20971;-63
2022/06/26 00:28:36;;;;;;;5.35;3.17;;;;;;;20.11;61.33;99242.97;1779609;79;21333;-65
2022/06/26 00:31:03;;;;;;;5.05;3.27;;;;;;;20.11;61.36;99240.27;1780015;80;20937;-62
2022/06/26 00:33:30;;;;;;;4.80;3.70;;;;;;;20.11;61.37;99249.73;1762273;80;20937;-64
2022/06/26 00:35:56;;;;;;;4.40;3.75;;;;;;;20.10;61.46;99250.80;1773788;80;21084;-63
2022/06/26 00:38:23;;;;;;;4.00;3.37;;;;;;;20.08;61.48;99252.89;1788938;80;20923;-64
2022/06/26 00:40:49;;;;;;;5.33;3.33;;;;;;;20.05;61.61;99254.74;1786708;79;21020;-66
2022/06/26 00:43:16;;;;;;;3.60;3.30;;;;;;;20.03;61.61;99255.48;1769174;80;20995;-66
2022/06/26 00:45:42;;;;;;;6.47;3.50;;;;;;;20.01;61.71;99259.78;1785482;80;20870;-65
2022/06/26 00:48:09;;;;;;;3.62;3.10;;;;;;;20.01;61.75;99256.26;1770255;80;21239;-65
2022/06/26 00:50:36;;;;;;;4.22;3.75;;;;;;;20.00;61.79;99255.95;1787660;80;21367;-67
2022/06/26 00:53:03;;;;;;;3.55;3.30;;;;;;;19.99;61.81;99257.03;1771009;80;21418;-64
2022/06/26 00:55:29;;;;;;;3.95;3.15;;;;;;;19.99;61.77;99259.73;1721373;80;20984;-64
2022/06/26 00:57:56;;;;;;;3.80;3.50;;;;;;;19.97;61.84;99264.55;1789534;80;20923;-67
2022/06/26 01:00:23;;;;;;;6.05;3.72;;;;;;;19.97;61.85;99260.50;1784055;78;21243;-65
2022/06/26 01:02:49;;;;;;;3.42;3.05;;;;;;;19.95;61.89;99259.36;1777061;79;20943;-66
2022/06/26 01:05:16;;;;;;;4.53;3.40;;;;;;;19.93;61.91;99257.44;1779993;80;20968;-65
2022/06/26 01:07:43;;;;;;;6.08;3.87;;;;;;;19.92;61.97;99257.69;1761460;80;20913;-66
2022/06/26 01:10:10;;;;;;;3.67;3.25;;;;;;;19.92;62.01;99256.34;1781417;80;21050;-65
2022/06/26 01:12:37;;;;;;;4.08;3.47;;;;;;;19.91;62.00;99254.68;1797578;79;22001;-64
2022/06/26 01:15:09;;;;;;;5.05;3.30;;;;;;;19.93;62.00;99257.96;1789306;79;20831;-65
2022/06/26 01:17:36;;;;;;;5.42;3.20;;;;;;;19.92;62.29;99261.19;1761555;80;20921;-66
2022/06/26 01:20:05;;;;;;;3.65;3.45;;;;;;;19.93;62.32;99262.01;1781157;80;20997;-65
2022/06/26 01:22:32;;;;;;;3.92;3.52;;;;;;;19.92;62.23;99260.38;1792382;79;20887;-64
2022/06/26 01:24:59;;;;;;;3.90;3.35;;;;;;;19.91;62.11;99256.03;1752866;80;22104;-64
2022/06/26 01:27:27;;;;;;;5.95;3.35;;;;;;;19.90;62.06;99260.60;1764202;81;20978;-66
2022/06/26 01:29:54;;;;;;;8.05;3.45;;;;;;;19.89;62.07;99256.80;1733171;81;20982;-65
2022/06/26 01:32:21;;;;;;;3.58;3.27;;;;;;;19.88;62.08;99268.64;1759599;81;21040;-67
2022/06/26 01:34:49;;;;;;;4.45;3.47;;;;;;;19.87;62.11;99266.47;1758396;81;21500;-64
2022/06/26 01:37:16;;;;;;;4.65;3.55;;;;;;;19.87;62.12;99264.29;1749672;81;21214;-64
2022/06/26 01:39:45;;;;;;;7.80;3.17;;;;;;;19.85;62.29;99261.02;1758991;81;20883;-65
2022/06/26 01:42:12;;;;;;;4.05;3.67;;;;;;;19.83;62.40;99271.23;1746648;81;21411;-65
2022/06/26 01:44:39;;;;;;;11.12;3.27;;;;;;;19.80;62.47;99263.59;1757491;81;20888;-66
2022/06/26 01:47:06;;;;;;;4.47;3.30;;;;;;;19.76;62.61;99274.06;1740715;81;21014;-65
2022/06/26 01:49:35;;;;;;;5.85;3.70;;;;;;;19.74;62.63;99277.50;1770384;80;21776;-67
2022/06/26 01:52:02;;;;;;;3.22;2.85;;;;;;;19.73;62.62;99280.72;1761033;81;20938;-67
2022/06/26 01:54:28;;;;;;;4.10;3.25;;;;;;;19.71;62.62;99280.14;1770668;79;20911;-66
2022/06/26 01:56:56;;;;;;;3.33;3.05;;;;;;;19.70;62.67;99275.81;1733554;81;21001;-66
2022/06/26 01:59:23;;;;;;;4.90;3.25;;;;;;;19.70;62.64;99279.03;1753520;81;20927;-64
2022/06/26 02:01:50;;;;;;;7.40;3.40;;;;;;;19.68;62.66;99280.59;1761359;79;21202;-67
2022/06/26 02:04:17;;;;;;;3.72;3.35;;;;;;;19.67;62.65;99281.67;1761529;79;20924;-69
2022/06/26 02:06:44;;;;;;;4.08;3.58;;;;;;;19.65;62.70;99282.44;1764445;80;20895;-67
2022/06/26 02:13:36;;;;;;;4.15;3.52;;;;;;;19.63;62.76;99287.77;1769673;81;21496;-68
2022/06/26 02:14:27;;;;;;;3.55;3.08;;;;;;;19.58;62.91;99292.50;1766461;81;21186;-68
2022/06/26 02:16:56;;;;;;;6.10;3.95;;;;;;;19.57;63.01;99304.36;1765267;80;20924;-69
2022/06/26 02:19:23;;;;;;;3.55;3.22;;;;;;;19.59;63.07;99304.12;1766280;81;20986;-68
2022/06/26 02:21:49;;;;;;;3.77;3.47;;;;;;;19.56;63.15;99305.41;1769887;81;20971;-67
2022/06/26 02:24:17;;;;;;;4.33;3.72;;;;;;;19.54;63.24;99306.69;1753936;80;21007;-66
2022/06/26 02:26:43;;;;;;;3.83;3.47;;;;;;;19.50;63.38;99306.33;1779893;80;21224;-67
2022/06/26 02:29:10;;;;;;;3.37;3.17;;;;;;;19.48;63.52;99302.21;1769631;80;20950;-66
2022/06/26 02:31:38;;;;;;;5.90;2.98;;;;;;;19.45;63.50;99306.20;1778654;80;21453;-68
2022/06/26 02:34:07;;;;;;;4.72;3.33;;;;;;;19.46;63.35;99307.85;1779534;80;20958;-68
2022/06/26 02:36:34;;;;;;;3.65;3.35;;;;;;;19.50;63.23;99312.27;1771291;80;20890;-65
2022/06/26 02:39:01;;;;;;;3.60;3.27;;;;;;;19.52;63.12;99314.20;1784508;80;21120;-66
2022/06/26 02:41:28;;;;;;;5.55;3.08;;;;;;;19.54;63.04;99310.22;1779700;80;20925;-67
2022/06/26 02:43:55;;;;;;;4.42;3.80;;;;;;;19.58;62.95;99320.00;1776250;80;20933;-70
2022/06/26 02:46:22;;;;;;;4.20;3.33;;;;;;;19.62;62.86;99314.45;1770200;80;20941;-69
2022/06/26 02:48:49;;;;;;;3.30;2.98;;;;;;;19.67;62.75;99318.10;1777679;79;20889;-67
2022/06/26 02:51:18;;;;;;;6.17;3.35;;;;;;;19.73;62.87;99322.27;1776121;80;21214;-66
2022/06/26 02:53:45;;;;;;;3.58;3.27;;;;;;;19.77;63.11;99316.69;1784217;79;21419;-65
2022/06/26 02:56:12;;;;;;;6.92;3.75;;;;;;;19.81;63.10;99316.53;1770950;80;20870;-66
2022/06/26 02:58:40;;;;;;;3.92;3.55;;;;;;;19.87;63.15;99323.67;1781394;80;20926;-66
2022/06/26 03:01:07;;;;;;;4.90;3.22;;;;;;;19.92;63.29;99324.63;1776113;80;20997;-68
2022/06/26 03:03:35;;;;;;;4.50;3.35;;;;;;;19.97;63.58;99329.34;1784827;78;21152;-68
2022/06/26 03:06:02;;;;;;;6.50;6.00;;;;;;;20.02;63.77;99322.70;1770793;80;21063;-66
2022/06/26 03:08:29;;;;;;;4.97;3.90;;;;;;;20.09;63.69;99332.86;1782387;80;20995;-67
2022/06/26 03:10:57;;;;;;;5.90;3.98;;;;;;;20.18;63.27;99330.08;1778401;80;20933;-65
2022/06/26 03:13:24;;;;;;;6.17;3.80;;;;;;;20.27;63.25;99338.16;1783627;80;21029;-67
2022/06/26 03:15:51;;;;;;;6.03;4.12;;;;;;;20.35;63.30;99333.75;1771981;80;21224;-66
2022/06/26 03:18:18;;;;;;;4.30;3.20;;;;;;;20.43;63.15;99337.45;1780255;80;21129;-66
2022/06/26 03:20:44;;;;;;;4.87;2.92;;;;;;;20.55;62.78;99335.53;1784988;80;20906;-68
2022/06/26 03:23:11;;;;;;;4.55;3.25;;;;;;;20.68;62.53;99339.33;1761691;80;21447;-66
2022/06/26 03:25:38;;;;;;;3.52;3.22;;;;;;;20.80;62.44;99342.84;1783625;80;20973;-68
2022/06/26 03:28:04;;;;;;;8.68;3.80;;;;;;;20.96;62.11;99343.14;1777360;80;21493;-69
2022/06/26 03:30:33;;;;;;;6.45;3.72;;;;;;;21.12;61.31;99345.13;1773049;79;20961;-68
2022/06/26 03:33:00;;;;;;;4.03;3.08;;;;;;;21.32;61.16;99349.55;1764330;79;20941;-67
2022/06/26 03:35:27;;;;;;;3.92;3.40;;;;;;;21.53;60.55;99350.21;1773665;80;20961;-68
2022/06/26 03:37:55;;;;;;;3.90;3.30;;;;;;;21.76;59.90;99347.36;1764675;80;21051;-67
2022/06/26 03:40:22;;;;;;;5.10;3.08;;;;;;;22.00;59.40;99350.20;1778981;80;21259;-65
2022/06/26 03:42:48;;;;;;;4.95;3.22;;;;;;;22.28;58.67;99355.23;1731606;80;20991;-68
2022/06/26 03:45:15;;;;;;;5.87;3.37;;;;;;;22.67;57.62;99352.83;1761506;80;20877;-67
2022/06/26 03:47:42;;;;;;;3.35;3.00;;;;;;;23.22;56.40;99353.50;1761742;80;20932;-67
2022/06/26 03:50:10;;;;;;;3.65;3.35;;;;;;;23.86;55.04;99348.16;1782616;80;20972;-70
2022/06/26 03:52:37;;;;;;;4.17;3.75;;;;;;;24.42;52.70;99349.41;1761216;80;21326;-66
2022/06/26 03:55:07;;;;;;;6.17;2.92;;;;;;;24.95;51.06;99350.50;1761283;80;20870;-66
2022/06/26 03:57:34;;;;;;;3.72;3.12;;;;;;;25.45;49.32;99346.27;1777856;80;20887;-68
2022/06/26 04:00:01;;;;;;;5.58;3.10;;;;;;;25.95;47.90;99346.89;1785403;80;21476;-69
2022/06/26 04:02:29;;;;;;;4.80;3.60;;;;;;;26.38;46.33;99351.79;1777160;79;20925;-68
2022/06/26 04:04:56;;;;;;;3.12;2.80;;;;;;;26.79;45.21;99351.14;1783474;80;21217;-69
2022/06/26 04:07:23;;;;;;;3.27;2.98;;;;;;;27.23;44.20;99355.30;1761479;80;20909;-67
2022/06/26 04:09:52;;;;;;;4.35;3.27;;;;;;;27.61;43.10;99355.91;1764269;80;20878;-69
2022/06/26 04:12:21;;;;;;;3.35;2.90;;;;;;;28.06;42.33;99357.49;1784175;80;21548;-68
2022/06/26 04:14:48;;;;;;;4.22;2.77;;;;;;;28.46;41.16;99362.59;1761474;80;21459;-69
2022/06/26 04:17:16;;;;;;;4.67;3.10;;;;;;;28.82;40.31;99362.20;1761438;80;21229;-69
2022/06/26 04:19:45;;;;;;;6.28;3.22;;;;;;;29.12;39.80;99356.36;1766020;80;20916;-69
2022/06/26 04:22:11;;;;;;;4.78;3.67;;;;;;;29.57;39.19;99359.84;1780147;80;20964;-67
2022/06/26 04:24:39;;;;;;;4.53;2.98;;;;;;;29.96;38.11;99360.89;1761405;80;20929;-67
2022/06/26 04:27:07;;;;;;;5.28;2.92;;;;;;;30.19;37.55;99361.31;1763835;80;20870;-69
2022/06/26 04:29:33;;;;;;;3.20;2.90;;;;;;;30.49;37.10;99366.29;1790692;79;21106;-65
2022/06/26 04:32:01;;;;;;;3.42;3.12;;;;;;;30.89;36.43;99365.24;1776662;79;21065;-70
2022/06/26 04:34:29;;;;;;;4.28;2.98;;;;;;;31.18;35.72;99356.14;1764942;80;20989;-68
2022/06/26 04:36:55;;;;;;;3.12;2.83;;;;;;;31.59;35.01;99354.13;1779620;80;21042;-67
2022/06/26 04:39:23;;;;;;;3.25;2.95;;;;;;;31.92;34.28;99352.49;1762059;80;20850;-69
2022/06/26 04:41:50;;;;;;;3.08;2.87;;;;;;;32.09;33.88;99360.36;1790899;80;21209;-68
2022/06/26 04:44:18;;;;;;;2.92;2.72;;;;;;;32.29;33.39;99359.82;1771027;80;20968;-70
2022/06/26 04:46:46;;;;;;;3.72;2.62;;;;;;;32.53;33.12;99358.11;1760855;80;20881;-66
2022/06/26 04:49:13;;;;;;;3.05;2.75;;;;;;;33.02;32.91;99357.54;1761463;80;20937;-68
2022/06/26 04:51:40;;;;;;;3.42;3.12;;;;;;;33.66;31.98;99363.59;1750562;81;20987;-67
2022/06/26 04:54:09;;;;;;;3.62;3.02;;;;;;;34.06;31.07;99358.73;1759590;80;21876;-67
2022/06/26 04:56:37;;;;;;;2.92;2.65;;;;;;;34.31;30.31;99357.06;1776407;80;21055;-66
2022/06/26 04:59:04;;;;;;;2.40;2.20;;;;;;;34.59;29.92;99359.66;1768285;80;20894;-69
2022/06/26 05:01:31;;;;;;;3.15;2.70;;;;;;;35.01;29.51;99357.27;1772731;80;21001;-68
2022/06/26 05:04:00;;;;;;;3.72;2.65;;;;;;;35.48;28.82;99358.53;1782632;80;20973;-69
2022/06/26 05:06:29;;;;;;;2.98;2.65;;;;;;;35.65;28.57;99360.61;1759899;80;21846;-69
2022/06/26 05:08:57;;;;;;;2.80;2.60;;;;;;;35.87;28.08;99365.80;1778569;80;21528;-67
2022/06/26 05:11:24;;;;;;;2.75;2.15;;;;;;;36.06;28.13;99364.52;1785458;79;20987;-69
2022/06/26 05:13:52;;;;;;;4.22;2.77;;;;;;;36.59;27.77;99359.45;1774679;80;20917;-68
2022/06/26 05:16:30;;;;;;;2.35;2.15;;;;;;;37.21;27.07;99354.38;1751015;78;21028;-69
2022/06/26 05:18:58;;;;;;;3.02;2.83;;;;;;;37.60;26.49;99356.98;1791053;80;21822;-68
2022/06/26 05:21:25;;;;;;;3.75;2.42;;;;;;;38.06;25.93;99350.01;1784622;80;20930;-67
2022/06/26 05:23:52;;;;;;;3.33;3.10;;;;;;;38.43;25.34;99348.67;1774003;80;21487;-69
2022/06/26 05:26:18;;;;;;;3.00;2.80;;;;;;;38.83;24.66;99345.70;1733504;81;21504;-66
2022/06/26 05:28:47;;;;;;;2.90;2.60;;;;;;;39.04;24.23;99342.62;1772734;80;21431;-69
2022/06/26 05:31:13;;;;;;;2.75;2.35;;;;;;;39.22;24.43;99342.48;1757419;80;21213;-67
2022/06/26 05:33:41;;;;;;;3.37;2.55;;;;;;;39.58;23.54;99353.81;1737715;81;21512;-70
2022/06/26 05:36:09;;;;;;;3.83;2.60;;;;;;;39.76;22.92;99360.59;1759783;81;20879;-68
2022/06/26 05:38:37;;;;;;;2.67;2.40;;;;;;;39.83;22.92;99363.52;1740384;81;20998;-67
2022/06/26 05:41:04;;;;;;;3.75;2.62;;;;;;;39.92;22.73;99351.55;1742535;80;20927;-69
2022/06/26 05:43:31;;;;;;;4.50;2.37;;;;;;;40.08;22.76;99363.44;1732287;81;22200;-68
2022/06/26 05:45:58;;;;;;;4.22;2.30;;;;;;;40.36;22.70;99359.00;1743688;81;20947;-68
2022/06/26 05:48:29;;;;;;;3.90;2.70;;;;;;;40.66;22.41;99366.92;1741493;81;21005;-68
2022/06/26 05:51:10;;;;;;;4.50;2.40;;;;;;;41.01;22.40;99371.72;1756934;81;20954;-67
2022/06/26 05:53:38;;;;;;;3.55;3.10;;;;;;;41.36;22.12;99363.66;1746651;80;20934;-69
2022/06/26 05:56:25;;;;;;;2.83;2.58;;;;;;;41.85;21.41;99367.13;1742494;80;21156;-68
2022/06/26 05:58:56;;;;;;;2.98;2.77;;;;;;;42.12;20.89;99373.44;1745334;81;20864;-68
2022/06/26 06:01:25;;;;;;;3.70;2.27;;;;;;;42.21;20.36;99366.98;1743062;80;21402;-67
2022/06/26 06:03:53;;;;;;;2.65;2.50;;;;;;;42.37;20.29;99378.12;1758307;80;20891;-68
2022/06/26 06:06:20;;;;;;;2.62;2.40;;;;;;;42.45;19.96;99371.41;1762317;81;21489;-64
2022/06/26 06:08:48;;;;;;;3.55;2.60;;;;;;;42.54;19.98;99371.13;1763902;79;21143;-67
2022/06/26 06:11:15;;;;;;;3.87;2.72;;;;;;;42.88;19.69;99374.61;1744103;81;20887;-69
2022/06/26 06:13:41;;;;;;;2.75;2.42;;;;;;;42.99;19.57;99372.15;1741780;81;20887;-71
2022/06/26 06:16:08;;;;;;;2.25;2.05;;;;;;;43.33;19.50;99375.59;1743674;81;20891;-66
2022/06/26 06:18:35;;;;;;;2.85;2.65;;;;;;;44.00;19.13;99382.12;1732624;81;20887;-68
2022/06/26 06:21:02;;;;;;;3.80;2.40;;;;;;;44.47;18.79;99381.05;1732454;81;21218;-68
2022/06/26 06:23:29;;;;;;;2.67;2.47;;;;;;;44.76;18.09;99382.11;1758617;81;20967;-69
2022/06/26 06:25:56;;;;;;;2.95;2.17;;;;;;;44.98;17.88;99384.31;1755142;80;20850;-68
2022/06/26 06:28:23;;;;;;;2.37;2.25;;;;;;;45.09;17.74;99380.91;1767281;80;21527;-70
2022/06/26 06:30:50;;;;;;;2.22;2.02;;;;;;;45.46;17.61;99380.45;1781239;80;20933;-68
2022/06/26 06:33:18;;;;;;;2.30;2.10;;;;;;;45.72;16.92;99387.02;1764177;80;21156;-68
2022/06/26 06:35:48;;;;;;;2.42;2.22;;;;;;;45.78;16.72;99381.18;1788986;80;20916;-66
2022/06/26 06:38:15;;;;;;;2.70;2.50;;;;;;;46.07;16.42;99380.47;1763912;80;21551;-66
2022/06/26 06:40:43;;;;;;;3.10;2.27;;;;;;;46.28;16.14;99380.31;1789873;79;20840;-70
2022/06/26 06:43:12;;;;;;;3.30;2.10;;;;;;;46.23;16.28;99377.16;1788968;80;21527;-71
2022/06/26 06:45:52;;;;;;;3.83;2.20;;;;;;;46.50;16.36;99379.59;1732053;79;21166;-67
2022/06/26 06:48:24;;;;;;;2.65;2.40;;;;;;;46.80;15.70;99375.58;1761111;80;20893;-66
2022/06/26 06:51:06;;;;;;;3.20;2.20;;;;;;;46.51;15.35;99377.80;1754633;80;28031;-67
2022/06/26 06:53:33;;;;;;;3.05;2.25;;;;;;;46.00;15.98;99377.67;1786975;80;20970;-67
2022/06/26 06:56:01;;;;;;;2.05;1.90;;;;;;;45.65;16.17;99382.03;1772466;79;20914;-68
2022/06/26 06:58:27;;;;;;;2.20;2.10;;;;;;;45.48;16.43;99374.42;1781423;80;21226;-68
2022/06/26 07:00:54;;;;;;;1.98;1.87;;;;;;;45.63;16.49;99379.61;1783580;80;20891;-66
2022/06/26 07:03:21;;;;;;;1.85;1.75;;;;;;;46.07;15.57;99374.04;1787456;80;20966;-69
2022/06/26 07:05:48;;;;;;;5.03;2.20;;;;;;;45.43;15.58;99379.86;1759490;79;21487;-66
2022/06/26 07:08:16;;;;;;;2.20;2.00;;;;;;;44.96;16.01;99383.12;1758501;80;20889;-70
2022/06/26 07:10:43;;;;;;;3.12;1.95;;;;;;;44.89;16.22;99385.94;1779859;80;21336;-66
2022/06/26 07:13:10;;;;;;;1.90;1.47;;;;;;;44.85;16.25;99389.33;1761164;80;20977;-66
2022/06/26 07:15:38;;;;;;;3.35;1.92;;;;;;;44.92;15.85;99378.13;1764454;80;21068;-66
2022/06/26 07:18:04;;;;;;;2.10;2.00;;;;;;;44.86;15.94;99381.09;1758514;80;21439;-66
2022/06/26 07:20:31;;;;;;;3.05;1.90;;;;;;;44.77;15.75;99386.50;1779353;80;21512;-66
2022/06/26 07:22:58;;;;;;;1.82;1.72;;;;;;;44.63;15.84;99392.13;1758715;80;21127;-66
2022/06/26 07:25:42;;;;;;;1.72;1.50;;;;;;;44.52;15.69;99386.30;1759104;80;20937;-66
2022/06/26 07:28:09;;;;;;;1.57;1.47;;;;;;;44.37;15.87;99382.65;1772537;80;20974;-66
2022/06/26 07:30:36;;;;;;;3.25;2.10;;;;;;;44.46;15.80;99384.45;1774485;79;21460;-67
2022/06/26 07:33:05;;;;;;;2.10;2.00;;;;;;;44.32;15.90;99380.84;1789945;80;21401;-66
2022/06/26 07:35:32;;;;;;;2.15;1.80;;;;;;;44.27;16.07;99378.42;1791637;80;21234;-66
2022/06/26 07:38:02;;;;;;;2.02;1.80;;;;;;;44.11;16.14;99373.19;1786161;80;20971;-66
2022/06/26 07:40:28;;;;;;;2.20;2.00;;;;;;;44.29;16.37;99378.82;1791629;79;21005;-67
2022/06/26 07:42:56;;;;;;;2.45;1.80;;;;;;;44.93;15.70;99380.52;1767310;80;21043;-68
2022/06/26 07:45:24;;;;;;;2.55;2.05;;;;;;;45.22;15.20;99386.89;1764225;80;20971;-69
2022/06/26 07:47:52;;;;;;;4.40;1.90;;;;;;;45.47;15.02;99389.09;1768381;79;21348;-65
2022/06/26 07:50:22;;;;;;;1.95;1.85;;;;;;;45.37;14.69;99386.48;1780129;80;21080;-65
2022/06/26 07:52:48;;;;;;;1.95;1.85;;;;;;;45.25;14.96;99391.14;1770434;80;21478;-66
2022/06/26 07:55:16;;;;;;;1.72;1.55;;;;;;;44.74;15.23;99385.89;1788968;80;20895;-67
2022/06/26 07:57:42;;;;;;;3.55;1.90;;;;;;;44.25;15.25;99389.23;1774261;80;21507;-66
2022/06/26 08:00:10;;;;;;;5.85;1.62;;;;;;;44.04;15.71;99388.55;1762146;80;21906;-66
2022/06/26 08:02:40;;;;;;;1.77;1.67;;;;;;;43.99;15.99;99391.13;1760920;80;20925;-68
2022/06/26 08:05:07;;;;;;;2.17;2.00;;;;;;;43.99;15.44;99391.71;1782872;80;21016;-68
2022/06/26 08:07:34;;;;;;;3.08;1.72;;;;;;;43.66;15.76;99398.95;1789976;80;21033;-67
2022/06/26 08:10:02;;;;;;;3.20;2.08;;;;;;;43.70;15.94;99395.59;1790225;79;21091;-67
2022/06/26 08:12:29;;;;;;;1.90;1.80;;;;;;;43.95;15.56;99395.11;1765945;80;21133;-67
2022/06/26 08:14:55;;;;;;;4.05;1.82;;;;;;;43.76;16.15;99391.23;1782347;80;21036;-67
2022/06/26 08:17:22;;;;;;;2.65;1.90;;;;;;;42.08;17.21;99401.94;1770054;80;21034;-68
2022/06/26 08:19:48;;;;;;;2.10;1.90;;;;;;;39.98;19.04;99406.59;1774187;80;20909;-67
2022/06/26 08:22:15;;;;;;;3.55;1.70;;;;;;;39.42;20.22;99399.80;1783190;80;20983;-66
2022/06/26 08:24:41;;;;;;;2.58;2.00;;;;;;;40.43;19.78;99399.53;1769298;79;21157;-69
2022/06/26 08:27:09;;;;;;;4.15;2.00;;;;;;;41.80;18.90;99392.61;1762291;80;21333;-70
2022/06/26 08:29:37;;;;;;;1.87;1.60;;;;;;;42.87;17.93;99402.37;1760972;80;20980;-67
2022/06/26 08:32:04;;;;;;;1.60;1.45;;;;;;;43.56;16.66;99399.92;1773575;80;20985;-67
2022/06/26 08:34:31;;;;;;;1.42;1.40;;;;;;;42.69;16.97;99399.42;1776156;79;20918;-66
2022/06/26 08:36:57;;;;;;;1.60;1.50;;;;;;;40.99;18.31;99411.72;1775838;80;21242;-66
2022/06/26 08:39:24;;;;;;;1.65;1.55;;;;;;;39.94;19.37;99404.92;1769187;79;20927;-67
2022/06/26 08:41:54;;;;;;;2.27;1.70;;;;;;;40.27;19.42;99409.39;1762519;79;20929;-66
2022/06/26 08:44:23;;;;;;;3.25;1.87;;;;;;;41.26;19.00;99406.37;1772610;78;20993;-69
2022/06/26 08:46:50;;;;;;;3.77;1.87;;;;;;;42.11;18.04;99403.98;1769838;80;21491;-68
2022/06/26 08:49:20;;;;;;;3.45;1.85;;;;;;;42.72;17.67;99400.65;1770195;79;21227;-65
2022/06/26 08:51:48;;;;;;;1.70;1.60;;;;;;;42.79;17.63;99402.09;1758596;80;21527;-64
2022/06/26 08:54:15;;;;;;;2.27;1.70;;;;;;;41.92;17.73;99416.70;1768279;80;20926;-65
2022/06/26 08:56:44;;;;;;;2.35;1.77;;;;;;;41.35;18.25;99415.10;1767247;80;21003;-66
2022/06/26 08:59:12;;;;;;;1.50;1.40;;;;;;;41.42;18.31;99417.98;1774709;80;21596;-65
2022/06/26 09:01:39;;;;;;;2.08;1.85;;;;;;;42.07;17.49;99408.70;1779713;79;21256;-69
2022/06/26 09:04:07;;;;;;;1.60;1.50;;;;;;;42.32;17.43;99409.22;1760918;78;21585;-70
2022/06/26 09:06:34;;;;;;;1.70;1.60;;;;;;;41.92;17.83;99411.93;1763715;78;21520;-69
2022/06/26 09:09:24;;;;;;;1.62;1.52;;;;;;;42.13;17.49;99416.41;1761112;80;20988;-70
2022/06/26 09:11:55;;;;;;;2.25;1.57;;;;;;;41.72;17.52;99416.84;1773621;80;20965;-69
2022/06/26 09:14:22;;;;;;;4.60;1.57;;;;;;;40.21;18.51;99419.79;1766327;80;21226;-68
2022/06/26 09:16:49;;;;;;;1.57;1.47;;;;;;;40.38;18.90;99417.95;1783349;80;20911;-70
2022/06/26 09:19:23;;;;;;;1.82;1.50;;;;;;;40.90;17.93;99427.92;1765723;80;21439;-67
2022/06/26 09:21:50;;;;;;;1.55;1.45;;;;;;;40.91;17.69;99423.16;1772819;80;20922;-69
2022/06/26 09:24:19;;;;;;;1.52;1.27;;;;;;;41.17;17.70;99420.39;1773837;80;20927;-68
2022/06/26 09:26:45;;;;;;;1.62;1.52;;;;;;;41.55;17.59;99424.95;1752896;80;21239;-68
2022/06/26 09:29:15;;;;;;;2.83;1.65;;;;;;;42.25;17.68;99410.55;1742375;81;20969;-67
2022/06/26 09:31:42;;;;;;;3.25;1.55;;;;;;;42.23;16.82;99419.91;1754739;80;20980;-70
2022/06/26 09:34:25;;;;;;;1.70;1.60;;;;;;;41.98;17.04;99417.38;1735786;81;21622;-67
2022/06/26 09:36:57;;;;;;;4.22;3.37;;;;;;;42.39;16.80;99416.30;1754278;81;20934;-66
2022/06/26 09:39:26;;;;;;;1.80;1.70;;;;;;;43.12;16.40;99415.20;1736750;81;22403;-66
2022/06/26 09:41:53;;;;;;;2.85;1.70;;;;;;;42.99;16.33;99414.12;1754414;81;20963;-66
2022/06/26 09:44:20;;;;;;;1.45;1.35;;;;;;;42.99;16.39;99414.12;1773898;81;20908;-68
2022/06/26 09:46:47;;;;;;;1.50;1.40;;;;;;;42.52;16.43;99416.02;1762825;81;20872;-68
2022/06/26 09:49:13;;;;;;;1.77;1.67;;;;;;;41.84;17.01;99411.63;1754348;81;20884;-71
2022/06/26 09:51:40;;;;;;;1.67;1.45;;;;;;;41.87;17.03;99405.87;1742322;81;21245;-68
2022/06/26 09:54:07;;;;;;;1.70;1.60;;;;;;;41.88;17.28;99401.88;1772224;81;21519;-67
2022/06/26 09:56:33;;;;;;;1.60;1.50;;;;;;;42.11;17.05;99409.56;1770599;81;20982;-66
2022/06/26 09:59:00;;;;;;;2.12;1.80;;;;;;;42.10;16.76;99410.15;1757154;81;21049;-68
2022/06/26 10:07:02;;;;;;;2.08;1.50;;;;;;;40.21;18.45;99404.47;1769318;81;20939;-66
2022/06/26 10:09:29;;;;;;;4.28;1.90;;;;;;;40.02;19.21;99408.07;1793403;79;20981;-69
2022/06/26 10:11:58;;;;;;;4.05;1.50;;;;;;;38.96;19.97;99400.05;1749076;78;20943;-68
2022/06/26 10:14:32;;;;;;;2.08;1.98;;;;;;;37.68;20.81;99402.62;1770298;81;21439;-67
2022/06/26 10:17:22;;;;;;;1.57;1.47;;;;;;;36.58;22.30;99402.96;1769480;80;21155;-67
2022/06/26 10:19:56;;;;;;;1.50;1.40;;;;;;;35.77;22.95;99401.38;1742487;80;20898;-66
2022/06/26 10:22:23;;;;;;;3.65;1.60;;;;;;;35.13;24.41;99399.41;1767682;79;20966;-69
2022/06/26 10:25:00;;;;;;;1.65;1.55;;;;;;;34.32;25.68;99409.17;1763197;79;20912;-67
2022/06/26 10:27:32;;;;;;;1.87;1.77;;;;;;;33.74;26.35;99403.38;1758742;78;20930;-67
2022/06/26 10:30:11;;;;;;;1.30;1.20;;;;;;;33.51;26.23;99421.95;1761597;79;21135;-65
2022/06/26 10:32:39;;;;;;;5.22;1.90;;;;;;;33.14;26.40;99414.27;1759236;79;20886;-67
2022/06/26 10:35:07;;;;;;;2.52;1.50;;;;;;;32.80;26.91;99412.97;1754389;79;20950;-66
2022/06/26 10:37:43;;;;;;;2.67;1.70;;;;;;;32.67;27.50;99409.75;1761340;78;21091;-66
2022/06/26 10:43:14;;;;;;;2.37;1.42;;;;;;;32.51;27.80;99409.08;1759767;80;22148;-67
2022/06/26 10:45:41;;;;;;;3.98;1.82;;;;;;;32.48;28.53;99416.59;1792508;79;20941;-67
2022/06/26 10:48:20;;;;;;;2.27;1.30;;;;;;;32.40;28.66;99411.28;1772341;79;20994;-66
2022/06/26 10:51:01;;;;;;;3.60;1.90;;;;;;;32.36;28.96;99413.03;1791820;79;21028;-68
2022/06/26 10:53:37;;;;;;;2.50;1.62;;;;;;;32.28;28.66;99411.03;1792499;79;21473;-65
2022/06/26 10:56:04;;;;;;;;;;;;;;;32.16;28.70;99424.00;1791576;79;21171;-66
2022/06/26 10:58:39;;;;;;;1.72;1.62;;;;;;;32.04;28.55;99414.13;1796001;79;20426;-66
2022/06/26 11:01:08;;;;;;;2.15;1.42;;;;;;;32.04;28.87;99422.39;1777511;78;20967;-66
2022/06/26 11:03:36;;;;;;;1.98;1.70;;;;;;;31.88;28.70;99419.72;1789591;79;20907;-70
2022/06/26 11:06:08;;;;;;;3.08;1.50;;;;;;;31.88;28.92;99407.34;1799181;79;20957;-69
2022/06/26 11:08:48;;;;;;;2.80;1.82;;;;;;;32.06;28.74;99413.25;1795166;79;21246;-66
2022/06/26 11:11:25;;;;;;;2.00;1.80;;;;;;;32.19;28.37;99402.74;1787222;79;20895;-66
2022/06/26 11:14:08;;;;;;;1.57;1.47;;;;;;;32.21;28.87;99409.30;1785109;79;20949;-64
2022/06/26 11:16:44;;;;;;;1.60;1.45;;;;;;;32.02;29.13;99415.54;1792601;79;20895;-66
2022/06/26 11:19:26;;;;;;;1.62;1.52;;;;;;;31.72;28.79;99410.19;1779975;79;20886;-66
2022/06/26 11:22:08;;;;;;;1.82;1.55;;;;;;;31.35;28.91;99414.01;1786814;79;22264;-67
2022/06/26 11:24:48;;;;;;;2.02;1.37;;;;;;;30.94;29.48;99407.19;1805837;79;20898;-70
2022/06/26 11:27:15;;;;;;;2.22;2.00;;;;;;;30.64;30.81;99409.09;1790492;78;21042;-68
2022/06/26 11:29:43;;;;;;;5.65;1.62;;;;;;;30.37;31.63;99412.63;1776779;79;21013;-69
2022/06/26 11:32:11;;;;;;;11.30;1.90;;;;;;;30.19;31.64;99414.02;1764158;79;20896;-67
2022/06/26 11:34:52;;;;;;;1.67;1.57;;;;;;;30.05;32.07;99402.17;1756865;79;21098;-71
2022/06/26 11:37:37;;;;;;;2.80;1.72;;;;;;;30.00;32.19;99403.62;1759095;81;20955;-72
2022/06/26 11:40:14;;;;;;;2.62;1.77;;;;;;;30.01;31.85;99403.31;1768764;81;20994;-69
2022/06/26 11:42:42;;;;;;;2.87;1.67;;;;;;;30.02;31.57;99401.39;1742966;81;20970;-70
2022/06/26 11:45:08;;;;;;;6.83;1.90;;;;;;;30.02;32.58;99402.76;1752437;81;21033;-69
2022/06/26 11:47:36;;;;;;;2.10;1.57;;;;;;;30.04;32.60;99395.86;1774686;79;21397;-76
2022/06/26 11:50:04;;;;;;;1.80;1.70;;;;;;;30.12;32.02;99399.84;1723378;81;20946;-71
2022/06/26 11:52:31;;;;;;;1.98;1.67;;;;;;;30.17;31.91;99397.84;1747966;81;20939;-75